createdAt,value
2022-08-31T00:00:47.589Z,4.82
2022-08-31T00:03:34.238Z,5.53
2022-08-31T00:06:04.866Z,4.85
2022-08-31T00:08:34.475Z,4.95
2022-08-31T00:11:03.063Z,4.80
2022-08-31T00:13:32.653Z,4.78
2022-08-31T00:16:01.298Z,5.63
2022-08-31T00:18:28.875Z,4.70
2022-08-31T00:20:58.515Z,4.82
2022-08-31T00:23:28.088Z,4.82
2022-08-31T00:25:56.685Z,5.32
2022-08-31T00:28:25.383Z,4.82
2022-08-31T00:30:53.885Z,5.13
2022-08-31T00:33:22.483Z,5.07
2022-08-31T00:35:50.099Z,4.20
2022-08-31T00:38:18.710Z,4.57
2022-08-31T00:40:48.347Z,4.18
2022-08-31T00:43:41.213Z,5.07
2022-08-31T00:46:11.603Z,4.43
2022-08-31T00:48:48.229Z,5.68
2022-08-31T00:51:18.545Z,4.75
2022-08-31T00:53:50.764Z,5.85
2022-08-31T00:56:21.070Z,4.60
2022-08-31T00:58:54.492Z,4.80
2022-08-31T01:01:24.468Z,5.68
2022-08-31T01:03:53.872Z,4.82
2022-08-31T01:06:23.505Z,4.13
2022-08-31T01:08:52.095Z,5.63
2022-08-31T01:11:21.710Z,5.03
2022-08-31T01:13:51.920Z,4.80
2022-08-31T01:16:27.037Z,4.75
2022-08-31T01:18:57.536Z,4.47
2022-08-31T01:22:09.311Z,3.67
2022-08-31T01:24:42.813Z,5.40
2022-08-31T01:27:12.548Z,3.97
2022-08-31T01:29:43.063Z,4.53
2022-08-31T01:32:12.757Z,5.13
2022-08-31T01:34:42.373Z,5.28
2022-08-31T01:37:10.953Z,5.43
2022-08-31T01:39:40.564Z,5.20
2022-08-31T01:42:08.191Z,5.82
2022-08-31T01:44:36.774Z,4.40
2022-08-31T01:47:06.465Z,4.97
2022-08-31T01:49:35.985Z,4.93
2022-08-31T01:52:05.599Z,5.00
2022-08-31T01:54:34.202Z,4.07
2022-08-31T01:57:03.806Z,4.43
2022-08-31T01:59:53.489Z,4.00
2022-08-31T02:02:42.242Z,4.90
2022-08-31T02:05:11.872Z,5.20
2022-08-31T02:07:39.364Z,5.00
2022-08-31T02:10:09.232Z,4.55
2022-08-31T02:12:37.613Z,4.43
2022-08-31T02:15:09.400Z,4.38
2022-08-31T02:17:37.784Z,5.45
2022-08-31T02:20:09.525Z,4.57
2022-08-31T02:22:39.531Z,5.35
2022-08-31T02:25:08.570Z,5.05
2022-08-31T02:27:38.275Z,4.70
2022-08-31T02:30:14.884Z,4.93
2022-08-31T02:32:45.519Z,3.92
2022-08-31T02:35:14.101Z,4.55
2022-08-31T02:37:42.707Z,4.75
2022-08-31T02:40:13.376Z,4.72
2022-08-31T02:42:52.861Z,4.32
2022-08-31T02:45:26.594Z,4.13
2022-08-31T02:48:02.191Z,4.25
2022-08-31T02:50:41.857Z,5.00
2022-08-31T02:53:11.474Z,5.07
2022-08-31T02:55:43.034Z,5.32
2022-08-31T02:58:12.658Z,4.72
2022-08-31T03:00:45.259Z,5.45
2022-08-31T03:03:12.950Z,4.80
2022-08-31T03:05:41.457Z,4.40
2022-08-31T03:08:10.065Z,4.22
2022-08-31T03:10:39.686Z,4.60
2022-08-31T03:13:07.286Z,4.15
2022-08-31T03:15:35.945Z,5.60
2022-08-31T03:18:07.567Z,4.20
2022-08-31T03:20:36.112Z,4.70
2022-08-31T03:23:04.691Z,4.93
2022-08-31T03:25:32.136Z,4.30
2022-08-31T03:28:00.924Z,5.60
2022-08-31T03:30:31.615Z,5.13
2022-08-31T03:33:05.211Z,4.07
2022-08-31T03:35:35.773Z,4.88
2022-08-31T03:38:04.630Z,3.35
2022-08-31T03:40:34.092Z,3.60
2022-08-31T03:43:03.631Z,4.22
2022-08-31T03:45:33.226Z,4.80
2022-08-31T03:48:00.786Z,5.15
2022-08-31T03:50:30.760Z,4.50
2022-08-31T03:53:05.052Z,4.50
2022-08-31T03:55:35.627Z,4.93
2022-08-31T03:58:04.228Z,5.40
2022-08-31T04:00:37.735Z,4.60
2022-08-31T04:03:15.550Z,4.45
2022-08-31T04:06:19.115Z,4.18
2022-08-31T04:09:05.911Z,3.92
2022-08-31T04:12:02.626Z,4.43
2022-08-31T04:15:10.400Z,4.40
2022-08-31T04:18:16.133Z,4.28
2022-08-31T04:20:49.757Z,4.40
2022-08-31T04:23:19.073Z,4.40
2022-08-31T04:25:49.960Z,3.75
2022-08-31T04:28:17.555Z,3.95
2022-08-31T04:30:46.206Z,4.40
2022-08-31T04:33:17.874Z,4.63
2022-08-31T04:35:45.388Z,4.28
2022-08-31T04:38:14.024Z,5.00
2022-08-31T04:40:45.628Z,4.90
2022-08-31T04:43:13.215Z,4.45
2022-08-31T04:45:45.939Z,5.05
2022-08-31T04:48:14.933Z,3.95
2022-08-31T04:50:44.023Z,4.97
2022-08-31T04:53:11.627Z,4.28
2022-08-31T04:55:44.249Z,4.10
2022-08-31T04:58:14.882Z,4.53
2022-08-31T05:00:46.483Z,3.95
2022-08-31T05:03:37.174Z,4.05
2022-08-31T05:06:05.838Z,4.15
2022-08-31T05:08:33.408Z,4.22
2022-08-31T05:11:11.083Z,4.82
2022-08-31T05:13:39.678Z,4.68
2022-08-31T05:16:10.379Z,4.57
2022-08-31T05:18:42.937Z,3.75
2022-08-31T05:21:29.155Z,4.22
2022-08-31T05:24:01.251Z,4.55
2022-08-31T05:26:31.861Z,4.35
2022-08-31T05:29:05.484Z,4.72
2022-08-31T05:31:40.112Z,4.35
2022-08-31T05:36:40.325Z,3.50
2022-08-31T05:39:10.928Z,4.97
2022-08-31T05:41:44.569Z,3.83
2022-08-31T05:44:13.217Z,3.90
2022-08-31T05:46:41.854Z,4.72
2022-08-31T05:49:11.648Z,5.00
2022-08-31T05:51:41.075Z,5.22
2022-08-31T05:54:11.715Z,5.10
2022-08-31T05:56:41.283Z,4.65
2022-08-31T05:59:12.032Z,4.43
2022-08-31T06:01:41.568Z,4.43
2022-08-31T06:04:11.095Z,3.95
2022-08-31T06:06:39.687Z,5.10
2022-08-31T06:09:10.299Z,5.55
2022-08-31T06:11:42.577Z,4.95
2022-08-31T06:14:15.639Z,5.63
2022-08-31T06:16:48.552Z,4.75
2022-08-31T06:19:19.762Z,4.40
2022-08-31T06:21:52.187Z,5.45
2022-08-31T06:24:28.016Z,4.68
2022-08-31T06:27:00.340Z,5.15
2022-08-31T06:43:40.012Z,4.55
2022-08-31T06:46:23.473Z,5.15
2022-08-31T06:49:05.166Z,5.13
2022-08-31T06:58:39.136Z,5.20
2022-08-31T07:01:36.398Z,3.92
2022-08-31T07:04:38.315Z,4.75
2022-08-31T07:07:16.357Z,5.25
2022-08-31T07:13:01.385Z,4.60
2022-08-31T07:15:28.486Z,5.32
2022-08-31T07:17:57.093Z,3.92
2022-08-31T07:20:27.748Z,3.85
2022-08-31T07:25:58.576Z,3.90
2022-08-31T07:28:28.692Z,4.78
2022-08-31T07:30:58.345Z,4.53
2022-08-31T07:33:26.905Z,5.10
2022-08-31T07:36:09.021Z,5.05
2022-08-31T07:39:11.300Z,5.30
2022-08-31T07:42:04.442Z,5.35
2022-08-31T07:44:35.648Z,8.43
2022-08-31T07:47:05.255Z,8.32
2022-08-31T07:49:33.867Z,8.82
2022-08-31T07:52:32.610Z,10.38
2022-08-31T07:55:23.353Z,10.95
2022-08-31T07:57:56.963Z,9.80
2022-08-31T08:00:31.651Z,10.57
2022-08-31T10:11:28.775Z,7.63
2022-08-31T14:26:22.792Z,0.82
2022-08-31T14:29:06.360Z,0.95
2022-08-31T14:31:57.678Z,0.80
2022-08-31T14:34:35.067Z,1.10
2022-08-31T14:40:07.034Z,1.23
2022-08-31T14:42:39.025Z,0.80
2022-08-31T14:45:21.149Z,1.00
2022-08-31T14:47:53.315Z,0.80
2022-08-31T14:50:29.960Z,0.85
2022-08-31T14:53:10.156Z,0.90
2022-08-31T14:55:47.286Z,1.50
2022-08-31T14:58:16.888Z,0.88
2022-08-31T15:00:53.936Z,0.90
2022-08-31T15:03:25.129Z,0.70
2022-08-31T15:05:53.190Z,0.70
2022-08-31T15:08:30.222Z,1.00
2022-08-31T15:11:17.301Z,0.82
2022-08-31T15:13:50.812Z,0.63
2022-08-31T15:16:30.500Z,0.80
2022-08-31T15:18:58.935Z,1.00
2022-08-31T15:21:28.746Z,0.70
2022-08-31T15:24:03.749Z,1.40
2022-08-31T15:26:33.807Z,1.13
2022-08-31T15:29:06.173Z,0.70
2022-08-31T15:31:41.169Z,0.82
2022-08-31T15:34:11.397Z,0.90
2022-08-31T15:36:41.260Z,0.70
2022-08-31T15:39:09.840Z,0.90
2022-08-31T15:41:41.181Z,0.80
2022-08-31T15:44:12.099Z,0.65
2022-08-31T15:47:00.781Z,0.85
2022-08-31T15:49:28.835Z,0.80
2022-08-31T15:51:57.226Z,0.80
2022-08-31T15:54:28.622Z,0.88
2022-08-31T15:56:59.268Z,0.70
2022-08-31T15:59:27.843Z,1.05
2022-08-31T16:01:55.540Z,0.80
2022-08-31T16:04:26.085Z,0.70
2022-08-31T16:06:55.694Z,0.93
2022-08-31T16:09:24.272Z,0.70
2022-08-31T16:11:52.003Z,0.63
2022-08-31T16:14:21.486Z,0.88
2022-08-31T16:16:51.243Z,0.80
2022-08-31T16:19:34.545Z,0.60
2022-08-31T16:22:09.385Z,0.80
2022-08-31T16:24:44.131Z,0.77
2022-08-31T16:27:17.963Z,0.70
2022-08-31T16:33:16.431Z,0.75
2022-08-31T17:11:45.260Z,0.70
2022-08-31T17:15:15.459Z,0.52
2022-08-31T17:21:14.015Z,0.60
2022-08-31T17:23:55.862Z,0.77
2022-08-31T17:26:38.910Z,0.77
2022-08-31T17:29:15.892Z,0.77
2022-08-31T17:31:49.557Z,0.73
2022-08-31T17:34:23.123Z,0.60
2022-08-31T17:36:52.746Z,0.70
2022-08-31T17:39:22.357Z,0.70
2022-08-31T17:41:51.995Z,0.63
2022-08-31T17:44:27.647Z,0.77
2022-08-31T17:46:56.352Z,0.60
2022-08-31T17:49:28.841Z,0.55
2022-08-31T17:51:58.636Z,0.75
2022-08-31T17:54:33.110Z,0.73
2022-08-31T17:57:02.722Z,0.57
2022-08-31T17:59:33.322Z,0.80
2022-08-31T18:02:04.944Z,1.00
2022-08-31T18:04:35.308Z,1.17
2022-08-31T18:07:03.214Z,0.70
2022-08-31T18:09:33.537Z,1.08
2022-08-31T18:12:02.393Z,0.70
2022-08-31T18:14:33.109Z,1.52
2022-08-31T18:17:04.569Z,0.88
2022-08-31T18:19:34.226Z,1.30
2022-08-31T18:22:01.842Z,1.80
2022-08-31T18:24:37.617Z,1.30
2022-08-31T18:27:09.093Z,0.90
2022-08-31T18:29:39.792Z,1.00
2022-08-31T18:32:09.466Z,1.40
2022-08-31T18:34:41.057Z,2.03
2022-08-31T18:37:10.541Z,3.08
2022-08-31T18:39:59.714Z,1.83
2022-08-31T18:42:48.925Z,1.83
2022-08-31T18:45:17.792Z,1.40
2022-08-31T18:48:23.896Z,1.15
2022-08-31T18:50:45.705Z,2.00
2022-08-31T18:53:28.976Z,2.85
2022-08-31T18:56:10.309Z,1.65
2022-08-31T18:58:40.632Z,1.38
2022-08-31T19:01:10.765Z,1.10
2022-08-31T19:03:43.127Z,1.10
2022-08-31T19:06:18.708Z,1.30
2022-08-31T19:08:48.306Z,1.15
2022-08-31T19:11:15.576Z,1.13
2022-08-31T19:13:44.592Z,1.48
2022-08-31T19:16:18.341Z,1.45
2022-08-31T19:18:56.827Z,1.30
2022-08-31T19:21:30.393Z,1.00
2022-08-31T19:24:03.033Z,1.20
2022-08-31T19:26:43.859Z,1.13
2022-08-31T19:29:15.427Z,1.10
2022-08-31T19:31:52.270Z,0.80
2022-08-31T19:34:26.581Z,1.00
2022-08-31T19:36:56.463Z,1.25
2022-08-31T19:39:29.850Z,1.10
2022-08-31T19:42:00.597Z,1.15
2022-08-31T19:44:29.342Z,1.30
2022-08-31T19:47:25.078Z,1.23
2022-08-31T19:49:53.368Z,1.30
2022-08-31T19:52:22.122Z,1.10
2022-08-31T19:54:49.716Z,1.40
2022-08-31T19:57:17.339Z,1.15
2022-08-31T19:59:45.910Z,1.30
2022-08-31T20:02:14.449Z,1.30
2022-08-31T20:04:43.161Z,1.35
2022-08-31T20:07:14.635Z,1.55
2022-08-31T20:09:42.242Z,0.90
2022-08-31T20:12:12.832Z,0.90
2022-08-31T20:14:41.461Z,1.00
2022-08-31T20:17:10.167Z,1.00
2022-08-31T20:19:40.687Z,1.00
2022-08-31T20:22:09.346Z,0.93
2022-08-31T20:24:43.864Z,0.95
2022-08-31T20:27:18.525Z,1.10
2022-08-31T20:29:48.224Z,1.00
2022-08-31T20:32:15.750Z,1.30
2022-08-31T20:34:46.366Z,1.30
2022-08-31T20:37:13.961Z,1.02
2022-08-31T20:39:43.571Z,0.93
2022-08-31T20:42:11.186Z,1.10
2022-08-31T20:44:40.813Z,0.85
2022-08-31T20:47:30.487Z,0.90
2022-08-31T20:50:00.109Z,0.90
2022-08-31T20:52:32.734Z,0.90
2022-08-31T20:55:03.306Z,0.88
2022-08-31T20:57:35.941Z,1.20
2022-08-31T21:00:10.343Z,0.80
2022-08-31T21:02:41.201Z,1.00
2022-08-31T21:05:37.503Z,1.05
2022-08-31T21:07:59.479Z,1.73
2022-08-31T21:10:36.933Z,0.90
2022-08-31T21:13:14.760Z,1.05
2022-08-31T21:15:45.448Z,0.90
2022-08-31T21:18:19.084Z,1.20
2022-08-31T21:20:48.601Z,1.00
2022-08-31T21:23:16.264Z,0.88
2022-08-31T21:25:47.812Z,1.10
2022-08-31T21:28:18.297Z,1.00
2022-08-31T21:30:51.078Z,0.95
2022-08-31T21:35:48.263Z,1.10
2022-08-31T21:38:17.029Z,0.93
2022-08-31T21:40:50.688Z,1.10
2022-08-31T21:43:19.819Z,0.90
2022-08-31T21:46:01.842Z,1.10
2022-08-31T21:48:32.180Z,1.10
2022-08-31T21:51:11.057Z,1.38
2022-08-31T21:53:40.659Z,0.85
2022-08-31T21:56:08.469Z,0.90
2022-08-31T21:58:38.903Z,1.10
2022-08-31T22:01:16.615Z,1.17
2022-08-31T22:03:45.165Z,1.20
2022-08-31T22:06:15.771Z,1.40
2022-08-31T22:08:46.417Z,1.15
2022-08-31T22:11:14.980Z,1.00
2022-08-31T22:13:45.118Z,2.20
2022-08-31T22:16:18.787Z,0.80
2022-08-31T22:19:01.657Z,1.02
2022-08-31T22:21:35.508Z,1.13
2022-08-31T22:24:10.167Z,1.10
2022-08-31T22:26:42.757Z,0.80
2022-08-31T22:29:13.390Z,1.27
2022-08-31T22:31:42.043Z,0.88
2022-08-31T22:34:12.471Z,0.98
2022-08-31T22:36:41.192Z,1.13
2022-08-31T22:39:16.830Z,1.75
2022-08-31T22:41:47.443Z,1.23
2022-08-31T22:44:19.097Z,1.67
2022-08-31T22:46:47.755Z,1.00
2022-08-31T22:49:19.279Z,1.40
2022-08-31T22:51:50.913Z,1.50
2022-08-31T22:54:20.509Z,1.50
2022-08-31T22:56:49.163Z,1.15
2022-08-31T22:59:25.754Z,1.50
2022-08-31T23:01:56.387Z,0.80
2022-08-31T23:04:26.992Z,1.27
2022-08-31T23:06:56.569Z,0.93
2022-08-31T23:09:28.226Z,1.20
2022-08-31T23:11:57.819Z,1.35
2022-08-31T23:14:26.416Z,1.20
2022-08-31T23:16:59.202Z,1.23
2022-08-31T23:19:33.653Z,1.25
2022-08-31T23:22:03.196Z,1.23
2022-08-31T23:24:37.917Z,1.27
2022-08-31T23:27:11.537Z,1.20
2022-08-31T23:29:53.689Z,1.42
2022-08-31T23:32:24.797Z,1.23
2022-08-31T23:34:53.401Z,1.20
2022-08-31T23:37:25.739Z,1.20
2022-08-31T23:39:55.604Z,1.10
2022-08-31T23:42:25.929Z,1.13
2022-08-31T23:44:54.817Z,1.15
2022-08-31T23:47:30.445Z,1.20
2022-08-31T23:50:00.053Z,1.85
2022-08-31T23:52:32.650Z,1.48
2022-08-31T23:55:01.264Z,1.70
2022-08-31T23:57:32.909Z,1.40
